sensor_id;sensor_type;location;lat;lon;timestamp;P1;durP1;ratioP1;P2;durP2;ratioP2
40501;SDS011;29631;49.168;9.848;2023-08-06T00:00:19;1.30;;;0.98;;
40501;SDS011;29631;49.168;9.848;2023-08-06T00:02:45;1.75;;;1.02;;
40501;SDS011;29631;49.168;9.848;2023-08-06T00:05:11;1.13;;;1.13;;
40501;SDS011;29631;49.168;9.848;2023-08-06T00:07:37;0.98;;;0.98;;
40501;SDS011;29631;49.168;9.848;2023-08-06T00:10:02;1.10;;;1.10;;
40501;SDS011;29631;49.168;9.848;2023-08-06T00:12:29;1.10;;;1.10;;
40501;SDS011;29631;49.168;9.848;2023-08-06T00:14:54;1.95;;;1.05;;
40501;SDS011;29631;49.168;9.848;2023-08-06T00:17:20;1.42;;;1.23;;
40501;SDS011;29631;49.168;9.848;2023-08-06T00:19:46;1.17;;;1.17;;
40501;SDS011;29631;49.168;9.848;2023-08-06T00:22:11;1.25;;;1.23;;
40501;SDS011;29631;49.168;9.848;2023-08-06T00:24:37;1.23;;;1.23;;
40501;SDS011;29631;49.168;9.848;2023-08-06T00:27:03;1.33;;;1.33;;
40501;SDS011;29631;49.168;9.848;2023-08-06T00:29:29;1.48;;;1.38;;
40501;SDS011;29631;49.168;9.848;2023-08-06T00:31:54;1.30;;;1.20;;
40501;SDS011;29631;49.168;9.848;2023-08-06T00:34:20;1.20;;;1.20;;
40501;SDS011;29631;49.168;9.848;2023-08-06T00:36:46;1.08;;;1.08;;
40501;SDS011;29631;49.168;9.848;2023-08-06T00:39:12;1.30;;;1.30;;
40501;SDS011;29631;49.168;9.848;2023-08-06T00:41:37;1.75;;;1.23;;
40501;SDS011;29631;49.168;9.848;2023-08-06T00:44:03;1.08;;;1.08;;
40501;SDS011;29631;49.168;9.848;2023-08-06T00:46:29;0.98;;;0.98;;
40501;SDS011;29631;49.168;9.848;2023-08-06T00:48:56;1.20;;;1.10;;
40501;SDS011;29631;49.168;9.848;2023-08-06T00:51:22;1.20;;;1.20;;
40501;SDS011;29631;49.168;9.848;2023-08-06T00:53:49;1.45;;;1.30;;
40501;SDS011;29631;49.168;9.848;2023-08-06T00:56:16;1.20;;;1.20;;
40501;SDS011;29631;49.168;9.848;2023-08-06T00:58:42;2.13;;;1.35;;
40501;SDS011;29631;49.168;9.848;2023-08-06T01:01:09;1.10;;;1.10;;
40501;SDS011;29631;49.168;9.848;2023-08-06T01:03:35;1.05;;;1.02;;
40501;SDS011;29631;49.168;9.848;2023-08-06T01:06:01;1.20;;;1.20;;
40501;SDS011;29631;49.168;9.848;2023-08-06T01:11:30;1.83;;;1.20;;
40501;SDS011;29631;49.168;9.848;2023-08-06T01:14:21;1.33;;;1.25;;
40501;SDS011;29631;49.168;9.848;2023-08-06T01:16:56;1.30;;;1.30;;
40501;SDS011;29631;49.168;9.848;2023-08-06T01:19:24;1.50;;;1.40;;
40501;SDS011;29631;49.168;9.848;2023-08-06T01:21:50;2.05;;;1.38;;
40501;SDS011;29631;49.168;9.848;2023-08-06T01:24:15;1.73;;;1.63;;
40501;SDS011;29631;49.168;9.848;2023-08-06T01:26:49;1.73;;;1.63;;
40501;SDS011;29631;49.168;9.848;2023-08-06T01:29:28;1.60;;;1.50;;
40501;SDS011;29631;49.168;9.848;2023-08-06T01:32:16;1.42;;;1.33;;
40501;SDS011;29631;49.168;9.848;2023-08-06T01:34:45;1.40;;;1.30;;
40501;SDS011;29631;49.168;9.848;2023-08-06T01:37:13;2.55;;;1.42;;
40501;SDS011;29631;49.168;9.848;2023-08-06T01:39:39;2.45;;;1.20;;
40501;SDS011;29631;49.168;9.848;2023-08-06T01:42:08;1.38;;;1.38;;
40501;SDS011;29631;49.168;9.848;2023-08-06T01:44:34;1.45;;;1.33;;
40501;SDS011;29631;49.168;9.848;2023-08-06T01:47:00;1.00;;;1.00;;
40501;SDS011;29631;49.168;9.848;2023-08-06T01:49:25;1.40;;;1.30;;
40501;SDS011;29631;49.168;9.848;2023-08-06T01:51:51;1.30;;;1.30;;
40501;SDS011;29631;49.168;9.848;2023-08-06T01:54:17;1.65;;;1.55;;
40501;SDS011;29631;49.168;9.848;2023-08-06T01:56:43;1.45;;;1.38;;
40501;SDS011;29631;49.168;9.848;2023-08-06T01:59:08;1.20;;;1.20;;
40501;SDS011;29631;49.168;9.848;2023-08-06T02:01:34;1.50;;;1.40;;
40501;SDS011;29631;49.168;9.848;2023-08-06T02:04:00;1.58;;;1.48;;
40501;SDS011;29631;49.168;9.848;2023-08-06T02:06:25;1.95;;;1.40;;
40501;SDS011;29631;49.168;9.848;2023-08-06T02:08:51;1.73;;;1.63;;
40501;SDS011;29631;49.168;9.848;2023-08-06T02:11:17;1.35;;;1.35;;
40501;SDS011;29631;49.168;9.848;2023-08-06T02:13:43;1.30;;;1.30;;
40501;SDS011;29631;49.168;9.848;2023-08-06T02:16:09;2.80;;;1.50;;
40501;SDS011;29631;49.168;9.848;2023-08-06T02:18:35;1.58;;;1.50;;
40501;SDS011;29631;49.168;9.848;2023-08-06T02:21:00;1.52;;;1.42;;
40501;SDS011;29631;49.168;9.848;2023-08-06T02:23:26;1.60;;;1.50;;
40501;SDS011;29631;49.168;9.848;2023-08-06T02:26:01;1.60;;;1.50;;
40501;SDS011;29631;49.168;9.848;2023-08-06T02:28:29;1.60;;;1.60;;
40501;SDS011;29631;49.168;9.848;2023-08-06T02:30:57;1.33;;;1.33;;
40501;SDS011;29631;49.168;9.848;2023-08-06T02:33:23;1.48;;;1.48;;
40501;SDS011;29631;49.168;9.848;2023-08-06T02:35:49;1.98;;;1.67;;
40501;SDS011;29631;49.168;9.848;2023-08-06T02:38:15;1.30;;;1.30;;
40501;SDS011;29631;49.168;9.848;2023-08-06T02:40:44;1.52;;;1.52;;
40501;SDS011;29631;49.168;9.848;2023-08-06T02:43:11;1.40;;;1.30;;
40501;SDS011;29631;49.168;9.848;2023-08-06T02:45:37;1.90;;;1.80;;
40501;SDS011;29631;49.168;9.848;2023-08-06T02:48:03;1.40;;;1.40;;
40501;SDS011;29631;49.168;9.848;2023-08-06T02:50:29;1.70;;;1.60;;
40501;SDS011;29631;49.168;9.848;2023-08-06T02:52:55;2.90;;;1.70;;
40501;SDS011;29631;49.168;9.848;2023-08-06T02:55:21;1.83;;;1.80;;
40501;SDS011;29631;49.168;9.848;2023-08-06T02:57:46;1.60;;;1.60;;
40501;SDS011;29631;49.168;9.848;2023-08-06T03:00:12;1.85;;;1.75;;
40501;SDS011;29631;49.168;9.848;2023-08-06T03:02:38;2.35;;;1.77;;
40501;SDS011;29631;49.168;9.848;2023-08-06T03:05:04;1.73;;;1.67;;
40501;SDS011;29631;49.168;9.848;2023-08-06T03:07:31;1.60;;;1.60;;
40501;SDS011;29631;49.168;9.848;2023-08-06T03:09:58;1.50;;;1.40;;
40501;SDS011;29631;49.168;9.848;2023-08-06T03:12:26;1.77;;;1.67;;
40501;SDS011;29631;49.168;9.848;2023-08-06T03:14:52;1.90;;;1.83;;
40501;SDS011;29631;49.168;9.848;2023-08-06T03:17:18;4.55;;;1.98;;
40501;SDS011;29631;49.168;9.848;2023-08-06T03:19:43;1.75;;;1.65;;
40501;SDS011;29631;49.168;9.848;2023-08-06T03:22:09;1.73;;;1.63;;
40501;SDS011;29631;49.168;9.848;2023-08-06T03:24:35;1.90;;;1.80;;
40501;SDS011;29631;49.168;9.848;2023-08-06T03:27:01;2.00;;;1.90;;
40501;SDS011;29631;49.168;9.848;2023-08-06T03:29:26;2.05;;;1.60;;
40501;SDS011;29631;49.168;9.848;2023-08-06T03:31:52;2.15;;;2.05;;
40501;SDS011;29631;49.168;9.848;2023-08-06T03:34:18;1.90;;;1.80;;
40501;SDS011;29631;49.168;9.848;2023-08-06T03:36:44;3.20;;;1.98;;
40501;SDS011;29631;49.168;9.848;2023-08-06T03:39:09;2.08;;;1.98;;
40501;SDS011;29631;49.168;9.848;2023-08-06T03:41:35;2.20;;;2.10;;
40501;SDS011;29631;49.168;9.848;2023-08-06T03:44:01;2.08;;;1.98;;
40501;SDS011;29631;49.168;9.848;2023-08-06T03:46:28;1.77;;;1.67;;
40501;SDS011;29631;49.168;9.848;2023-08-06T03:48:57;2.13;;;1.92;;
40501;SDS011;29631;49.168;9.848;2023-08-06T03:51:22;1.92;;;1.80;;
40501;SDS011;29631;49.168;9.848;2023-08-06T03:53:48;1.77;;;1.73;;
40501;SDS011;29631;49.168;9.848;2023-08-06T03:56:14;1.80;;;1.70;;
40501;SDS011;29631;49.168;9.848;2023-08-06T03:58:40;2.13;;;2.03;;
40501;SDS011;29631;49.168;9.848;2023-08-06T04:01:05;1.92;;;1.83;;
40501;SDS011;29631;49.168;9.848;2023-08-06T04:03:31;1.92;;;1.80;;
40501;SDS011;29631;49.168;9.848;2023-08-06T04:05:57;1.90;;;1.80;;
40501;SDS011;29631;49.168;9.848;2023-08-06T04:08:22;1.88;;;1.77;;
40501;SDS011;29631;49.168;9.848;2023-08-06T04:10:51;2.85;;;2.05;;
40501;SDS011;29631;49.168;9.848;2023-08-06T04:13:18;1.90;;;1.80;;
40501;SDS011;29631;49.168;9.848;2023-08-06T04:15:44;2.00;;;1.90;;
40501;SDS011;29631;49.168;9.848;2023-08-06T04:18:10;1.90;;;1.80;;
40501;SDS011;29631;49.168;9.848;2023-08-06T04:20:42;2.25;;;2.05;;
40501;SDS011;29631;49.168;9.848;2023-08-06T04:23:11;1.80;;;1.70;;
40501;SDS011;29631;49.168;9.848;2023-08-06T04:25:38;1.98;;;1.80;;
40501;SDS011;29631;49.168;9.848;2023-08-06T04:28:04;1.90;;;1.80;;
40501;SDS011;29631;49.168;9.848;2023-08-06T04:30:30;1.80;;;1.70;;
40501;SDS011;29631;49.168;9.848;2023-08-06T04:32:59;2.00;;;1.88;;
40501;SDS011;29631;49.168;9.848;2023-08-06T04:35:25;2.15;;;2.00;;
40501;SDS011;29631;49.168;9.848;2023-08-06T04:37:50;1.90;;;1.80;;
40501;SDS011;29631;49.168;9.848;2023-08-06T04:40:16;1.95;;;1.83;;
40501;SDS011;29631;49.168;9.848;2023-08-06T04:42:42;1.83;;;1.73;;
40501;SDS011;29631;49.168;9.848;2023-08-06T04:45:08;1.70;;;1.70;;
40501;SDS011;29631;49.168;9.848;2023-08-06T04:47:34;1.48;;;1.48;;
40501;SDS011;29631;49.168;9.848;2023-08-06T04:50:00;3.85;;;1.50;;
40501;SDS011;29631;49.168;9.848;2023-08-06T04:52:26;1.67;;;1.58;;
40501;SDS011;29631;49.168;9.848;2023-08-06T04:54:53;3.08;;;1.60;;
40501;SDS011;29631;49.168;9.848;2023-08-06T04:57:19;1.63;;;1.52;;
40501;SDS011;29631;49.168;9.848;2023-08-06T04:59:46;2.00;;;1.90;;
40501;SDS011;29631;49.168;9.848;2023-08-06T05:02:12;1.88;;;1.77;;
40501;SDS011;29631;49.168;9.848;2023-08-06T05:04:38;1.95;;;1.70;;
40501;SDS011;29631;49.168;9.848;2023-08-06T05:07:05;1.30;;;1.30;;
40501;SDS011;29631;49.168;9.848;2023-08-06T05:09:30;1.63;;;1.63;;
40501;SDS011;29631;49.168;9.848;2023-08-06T05:11:56;1.50;;;1.50;;
40501;SDS011;29631;49.168;9.848;2023-08-06T05:14:22;1.55;;;1.48;;
40501;SDS011;29631;49.168;9.848;2023-08-06T05:16:47;1.52;;;1.52;;
40501;SDS011;29631;49.168;9.848;2023-08-06T05:19:13;3.65;;;1.50;;
40501;SDS011;29631;49.168;9.848;2023-08-06T05:21:39;1.77;;;1.67;;
40501;SDS011;29631;49.168;9.848;2023-08-06T05:24:05;1.52;;;1.42;;
40501;SDS011;29631;49.168;9.848;2023-08-06T05:26:30;1.60;;;1.50;;
40501;SDS011;29631;49.168;9.848;2023-08-06T05:28:56;2.22;;;1.60;;
40501;SDS011;29631;49.168;9.848;2023-08-06T05:31:22;3.22;;;1.60;;
40501;SDS011;29631;49.168;9.848;2023-08-06T05:33:48;1.67;;;1.58;;
40501;SDS011;29631;49.168;9.848;2023-08-06T05:36:13;1.90;;;1.80;;
40501;SDS011;29631;49.168;9.848;2023-08-06T05:38:39;1.70;;;1.60;;
40501;SDS011;29631;49.168;9.848;2023-08-06T05:41:05;1.35;;;1.33;;
40501;SDS011;29631;49.168;9.848;2023-08-06T05:43:30;1.58;;;1.48;;
40501;SDS011;29631;49.168;9.848;2023-08-06T05:45:56;2.20;;;1.65;;
40501;SDS011;29631;49.168;9.848;2023-08-06T05:48:22;1.80;;;1.70;;
40501;SDS011;29631;49.168;9.848;2023-08-06T05:50:49;2.75;;;1.70;;
40501;SDS011;29631;49.168;9.848;2023-08-06T05:53:16;1.52;;;1.42;;
40501;SDS011;29631;49.168;9.848;2023-08-06T05:55:42;1.70;;;1.50;;
40501;SDS011;29631;49.168;9.848;2023-08-06T05:58:09;1.70;;;1.60;;
40501;SDS011;29631;49.168;9.848;2023-08-06T06:00:35;1.80;;;1.70;;
40501;SDS011;29631;49.168;9.848;2023-08-06T06:03:01;1.40;;;1.40;;
40501;SDS011;29631;49.168;9.848;2023-08-06T06:05:27;1.60;;;1.50;;
40501;SDS011;29631;49.168;9.848;2023-08-06T06:07:53;1.33;;;1.33;;
40501;SDS011;29631;49.168;9.848;2023-08-06T06:10:19;1.10;;;1.08;;
40501;SDS011;29631;49.168;9.848;2023-08-06T06:12:44;2.17;;;1.25;;
40501;SDS011;29631;49.168;9.848;2023-08-06T06:15:10;1.30;;;1.00;;
40501;SDS011;29631;49.168;9.848;2023-08-06T06:17:36;0.90;;;0.90;;
40501;SDS011;29631;49.168;9.848;2023-08-06T06:20:02;0.77;;;0.77;;
40501;SDS011;29631;49.168;9.848;2023-08-06T06:22:29;1.52;;;0.93;;
40501;SDS011;29631;49.168;9.848;2023-08-06T06:24:55;1.75;;;0.90;;
40501;SDS011;29631;49.168;9.848;2023-08-06T06:27:21;0.90;;;0.90;;
40501;SDS011;29631;49.168;9.848;2023-08-06T06:29:46;0.73;;;0.73;;
40501;SDS011;29631;49.168;9.848;2023-08-06T06:32:12;0.77;;;0.77;;
40501;SDS011;29631;49.168;9.848;2023-08-06T06:34:38;0.82;;;0.82;;
40501;SDS011;29631;49.168;9.848;2023-08-06T06:37:04;0.60;;;0.60;;
40501;SDS011;29631;49.168;9.848;2023-08-06T06:39:30;0.80;;;0.80;;
40501;SDS011;29631;49.168;9.848;2023-08-06T06:41:55;1.30;;;1.00;;
40501;SDS011;29631;49.168;9.848;2023-08-06T06:44:21;1.25;;;1.00;;
40501;SDS011;29631;49.168;9.848;2023-08-06T06:46:47;0.70;;;0.65;;
40501;SDS011;29631;49.168;9.848;2023-08-06T06:49:12;0.80;;;0.80;;
40501;SDS011;29631;49.168;9.848;2023-08-06T06:51:38;0.85;;;0.85;;
40501;SDS011;29631;49.168;9.848;2023-08-06T06:54:04;0.90;;;0.90;;
40501;SDS011;29631;49.168;9.848;2023-08-06T06:56:30;0.70;;;0.70;;
40501;SDS011;29631;49.168;9.848;2023-08-06T06:58:55;1.00;;;1.00;;
40501;SDS011;29631;49.168;9.848;2023-08-06T07:01:21;0.80;;;0.80;;
40501;SDS011;29631;49.168;9.848;2023-08-06T07:03:47;0.70;;;0.70;;
40501;SDS011;29631;49.168;9.848;2023-08-06T07:06:12;0.82;;;0.80;;
40501;SDS011;29631;49.168;9.848;2023-08-06T07:08:40;0.70;;;0.70;;
40501;SDS011;29631;49.168;9.848;2023-08-06T07:11:06;0.80;;;0.80;;
40501;SDS011;29631;49.168;9.848;2023-08-06T07:13:33;0.70;;;0.70;;
40501;SDS011;29631;49.168;9.848;2023-08-06T07:16:00;0.80;;;0.80;;
40501;SDS011;29631;49.168;9.848;2023-08-06T07:18:25;0.90;;;0.80;;
40501;SDS011;29631;49.168;9.848;2023-08-06T07:20:52;0.60;;;0.60;;
40501;SDS011;29631;49.168;9.848;2023-08-06T07:23:20;0.70;;;0.70;;
40501;SDS011;29631;49.168;9.848;2023-08-06T07:25:48;0.75;;;0.70;;
40501;SDS011;29631;49.168;9.848;2023-08-06T07:28:14;7.82;;;1.00;;
40501;SDS011;29631;49.168;9.848;2023-08-06T07:30:41;0.70;;;0.70;;
40501;SDS011;29631;49.168;9.848;2023-08-06T07:33:08;0.88;;;0.88;;
40501;SDS011;29631;49.168;9.848;2023-08-06T07:35:35;0.82;;;0.70;;
40501;SDS011;29631;49.168;9.848;2023-08-06T07:38:01;0.80;;;0.80;;
40501;SDS011;29631;49.168;9.848;2023-08-06T07:40:27;0.88;;;0.75;;
40501;SDS011;29631;49.168;9.848;2023-08-06T07:42:53;0.90;;;0.90;;
40501;SDS011;29631;49.168;9.848;2023-08-06T07:45:19;0.70;;;0.70;;
40501;SDS011;29631;49.168;9.848;2023-08-06T07:47:45;0.70;;;0.70;;
40501;SDS011;29631;49.168;9.848;2023-08-06T07:50:12;0.77;;;0.60;;
40501;SDS011;29631;49.168;9.848;2023-08-06T07:52:38;1.05;;;0.70;;
40501;SDS011;29631;49.168;9.848;2023-08-06T07:55:04;1.45;;;0.60;;
40501;SDS011;29631;49.168;9.848;2023-08-06T07:57:30;0.73;;;0.73;;
40501;SDS011;29631;49.168;9.848;2023-08-06T07:59:57;0.70;;;0.70;;
40501;SDS011;29631;49.168;9.848;2023-08-06T08:02:23;0.85;;;0.85;;
40501;SDS011;29631;49.168;9.848;2023-08-06T08:04:49;0.93;;;0.93;;
40501;SDS011;29631;49.168;9.848;2023-08-06T08:07:15;1.05;;;0.63;;
40501;SDS011;29631;49.168;9.848;2023-08-06T08:09:41;0.75;;;0.52;;
40501;SDS011;29631;49.168;9.848;2023-08-06T08:12:07;0.63;;;0.63;;
40501;SDS011;29631;49.168;9.848;2023-08-06T08:14:32;0.75;;;0.75;;
40501;SDS011;29631;49.168;9.848;2023-08-06T08:17:01;0.95;;;0.60;;
40501;SDS011;29631;49.168;9.848;2023-08-06T08:19:28;1.48;;;0.60;;
40501;SDS011;29631;49.168;9.848;2023-08-06T08:21:54;0.60;;;0.60;;
40501;SDS011;29631;49.168;9.848;2023-08-06T08:24:20;0.50;;;0.50;;
40501;SDS011;29631;49.168;9.848;2023-08-06T08:26:49;0.85;;;0.60;;
40501;SDS011;29631;49.168;9.848;2023-08-06T08:29:16;3.00;;;0.50;;
40501;SDS011;29631;49.168;9.848;2023-08-06T08:31:41;2.30;;;0.50;;
40501;SDS011;29631;49.168;9.848;2023-08-06T08:34:08;0.50;;;0.50;;
40501;SDS011;29631;49.168;9.848;2023-08-06T08:36:34;0.47;;;0.47;;
40501;SDS011;29631;49.168;9.848;2023-08-06T08:39:00;0.35;;;0.35;;
40501;SDS011;29631;49.168;9.848;2023-08-06T08:41:28;0.60;;;0.60;;
40501;SDS011;29631;49.168;9.848;2023-08-06T08:43:55;0.57;;;0.57;;
40501;SDS011;29631;49.168;9.848;2023-08-06T08:46:23;0.40;;;0.40;;
40501;SDS011;29631;49.168;9.848;2023-08-06T08:48:52;0.50;;;0.50;;
40501;SDS011;29631;49.168;9.848;2023-08-06T08:51:19;0.50;;;0.50;;
40501;SDS011;29631;49.168;9.848;2023-08-06T08:53:45;0.60;;;0.60;;
40501;SDS011;29631;49.168;9.848;2023-08-06T08:56:14;0.52;;;0.50;;
40501;SDS011;29631;49.168;9.848;2023-08-06T08:58:40;0.40;;;0.40;;
40501;SDS011;29631;49.168;9.848;2023-08-06T09:01:07;0.52;;;0.52;;
40501;SDS011;29631;49.168;9.848;2023-08-06T09:03:34;0.75;;;0.75;;
40501;SDS011;29631;49.168;9.848;2023-08-06T09:06:01;0.60;;;0.60;;
40501;SDS011;29631;49.168;9.848;2023-08-06T09:08:30;0.50;;;0.50;;
40501;SDS011;29631;49.168;9.848;2023-08-06T09:11:03;0.38;;;0.38;;
40501;SDS011;29631;49.168;9.848;2023-08-06T09:13:30;0.50;;;0.50;;
40501;SDS011;29631;49.168;9.848;2023-08-06T09:15:56;0.40;;;0.40;;
40501;SDS011;29631;49.168;9.848;2023-08-06T09:18:25;0.35;;;0.30;;
40501;SDS011;29631;49.168;9.848;2023-08-06T09:20:55;0.40;;;0.40;;
40501;SDS011;29631;49.168;9.848;2023-08-06T09:23:27;0.50;;;0.50;;
40501;SDS011;29631;49.168;9.848;2023-08-06T09:25:58;0.40;;;0.40;;
40501;SDS011;29631;49.168;9.848;2023-08-06T09:28:24;0.40;;;0.40;;
40501;SDS011;29631;49.168;9.848;2023-08-06T09:30:50;0.40;;;0.40;;
40501;SDS011;29631;49.168;9.848;2023-08-06T09:33:19;0.40;;;0.40;;
40501;SDS011;29631;49.168;9.848;2023-08-06T09:35:48;0.30;;;0.30;;
40501;SDS011;29631;49.168;9.848;2023-08-06T09:38:14;0.30;;;0.30;;
40501;SDS011;29631;49.168;9.848;2023-08-06T09:40:40;0.52;;;0.52;;
40501;SDS011;29631;49.168;9.848;2023-08-06T09:43:06;0.40;;;0.40;;
40501;SDS011;29631;49.168;9.848;2023-08-06T09:45:32;0.40;;;0.40;;
40501;SDS011;29631;49.168;9.848;2023-08-06T09:48:03;0.95;;;0.47;;
40501;SDS011;29631;49.168;9.848;2023-08-06T09:50:34;0.65;;;0.40;;
40501;SDS011;29631;49.168;9.848;2023-08-06T09:53:02;0.40;;;0.40;;
40501;SDS011;29631;49.168;9.848;2023-08-06T09:55:33;0.50;;;0.50;;
40501;SDS011;29631;49.168;9.848;2023-08-06T09:58:00;0.47;;;0.47;;
40501;SDS011;29631;49.168;9.848;2023-08-06T10:00:26;0.40;;;0.40;;
40501;SDS011;29631;49.168;9.848;2023-08-06T10:02:53;1.95;;;0.45;;
40501;SDS011;29631;49.168;9.848;2023-08-06T10:05:21;0.40;;;0.40;;
40501;SDS011;29631;49.168;9.848;2023-08-06T10:07:48;0.30;;;0.30;;
40501;SDS011;29631;49.168;9.848;2023-08-06T10:10:15;0.50;;;0.50;;
40501;SDS011;29631;49.168;9.848;2023-08-06T10:12:43;0.40;;;0.40;;
40501;SDS011;29631;49.168;9.848;2023-08-06T10:15:16;0.40;;;0.40;;
40501;SDS011;29631;49.168;9.848;2023-08-06T10:17:50;0.40;;;0.40;;
40501;SDS011;29631;49.168;9.848;2023-08-06T10:20:19;0.30;;;0.30;;
40501;SDS011;29631;49.168;9.848;2023-08-06T10:22:55;0.30;;;0.30;;
40501;SDS011;29631;49.168;9.848;2023-08-06T10:25:33;0.30;;;0.30;;
40501;SDS011;29631;49.168;9.848;2023-08-06T10:28:00;0.43;;;0.43;;
40501;SDS011;29631;49.168;9.848;2023-08-06T10:30:33;0.30;;;0.30;;
40501;SDS011;29631;49.168;9.848;2023-08-06T10:33:05;0.43;;;0.43;;
40501;SDS011;29631;49.168;9.848;2023-08-06T10:38:07;0.50;;;0.50;;
40501;SDS011;29631;49.168;9.848;2023-08-06T10:40:36;0.45;;;0.40;;
40501;SDS011;29631;49.168;9.848;2023-08-06T10:43:04;0.35;;;0.35;;
40501;SDS011;29631;49.168;9.848;2023-08-06T10:45:35;0.30;;;0.30;;
40501;SDS011;29631;49.168;9.848;2023-08-06T10:48:03;1.98;;;0.47;;
40501;SDS011;29631;49.168;9.848;2023-08-06T10:50:29;0.50;;;0.50;;
40501;SDS011;29631;49.168;9.848;2023-08-06T10:52:56;0.30;;;0.30;;
40501;SDS011;29631;49.168;9.848;2023-08-06T10:55:27;0.30;;;0.30;;
40501;SDS011;29631;49.168;9.848;2023-08-06T10:57:54;0.40;;;0.40;;
40501;SDS011;29631;49.168;9.848;2023-08-06T11:00:23;1.75;;;0.50;;
40501;SDS011;29631;49.168;9.848;2023-08-06T11:02:50;0.30;;;0.30;;
40501;SDS011;29631;49.168;9.848;2023-08-06T11:05:17;0.40;;;0.40;;
40501;SDS011;29631;49.168;9.848;2023-08-06T11:07:43;0.45;;;0.45;;
40501;SDS011;29631;49.168;9.848;2023-08-06T11:10:10;0.40;;;0.40;;
40501;SDS011;29631;49.168;9.848;2023-08-06T11:12:38;0.50;;;0.50;;
40501;SDS011;29631;49.168;9.848;2023-08-06T11:15:04;0.70;;;0.70;;
40501;SDS011;29631;49.168;9.848;2023-08-06T11:17:31;0.45;;;0.45;;
40501;SDS011;29631;49.168;9.848;2023-08-06T11:19:59;0.40;;;0.40;;
40501;SDS011;29631;49.168;9.848;2023-08-06T11:22:26;0.50;;;0.50;;
40501;SDS011;29631;49.168;9.848;2023-08-06T11:24:52;0.30;;;0.30;;
40501;SDS011;29631;49.168;9.848;2023-08-06T11:27:19;0.30;;;0.30;;
40501;SDS011;29631;49.168;9.848;2023-08-06T11:29:48;1.20;;;0.50;;
40501;SDS011;29631;49.168;9.848;2023-08-06T11:32:13;0.40;;;0.40;;
40501;SDS011;29631;49.168;9.848;2023-08-06T11:34:39;0.50;;;0.50;;
40501;SDS011;29631;49.168;9.848;2023-08-06T11:37:08;0.45;;;0.45;;
40501;SDS011;29631;49.168;9.848;2023-08-06T11:39:36;0.40;;;0.40;;
40501;SDS011;29631;49.168;9.848;2023-08-06T11:42:03;0.50;;;0.50;;
40501;SDS011;29631;49.168;9.848;2023-08-06T11:44:31;0.40;;;0.40;;
40501;SDS011;29631;49.168;9.848;2023-08-06T11:47:02;0.40;;;0.40;;
40501;SDS011;29631;49.168;9.848;2023-08-06T11:54:38;0.43;;;0.43;;
40501;SDS011;29631;49.168;9.848;2023-08-06T11:57:06;0.52;;;0.50;;
40501;SDS011;29631;49.168;9.848;2023-08-06T11:59:33;0.38;;;0.38;;
40501;SDS011;29631;49.168;9.848;2023-08-06T12:02:01;0.50;;;0.50;;
40501;SDS011;29631;49.168;9.848;2023-08-06T12:04:30;0.60;;;0.40;;
40501;SDS011;29631;49.168;9.848;2023-08-06T12:07:04;0.57;;;0.40;;
40501;SDS011;29631;49.168;9.848;2023-08-06T12:09:32;0.30;;;0.30;;
40501;SDS011;29631;49.168;9.848;2023-08-06T12:11:59;0.40;;;0.40;;
40501;SDS011;29631;49.168;9.848;2023-08-06T12:14:24;0.50;;;0.50;;
40501;SDS011;29631;49.168;9.848;2023-08-06T12:16:50;0.40;;;0.40;;
40501;SDS011;29631;49.168;9.848;2023-08-06T12:19:16;0.75;;;0.43;;
40501;SDS011;29631;49.168;9.848;2023-08-06T12:21:42;0.30;;;0.30;;
40501;SDS011;29631;49.168;9.848;2023-08-06T12:24:07;0.60;;;0.60;;
40501;SDS011;29631;49.168;9.848;2023-08-06T12:26:34;0.50;;;0.50;;
40501;SDS011;29631;49.168;9.848;2023-08-06T12:29:00;0.50;;;0.50;;
40501;SDS011;29631;49.168;9.848;2023-08-06T12:31:26;0.40;;;0.40;;
40501;SDS011;29631;49.168;9.848;2023-08-06T12:33:51;0.70;;;0.70;;
40501;SDS011;29631;49.168;9.848;2023-08-06T12:36:17;2.10;;;0.80;;
40501;SDS011;29631;49.168;9.848;2023-08-06T12:38:43;0.70;;;0.70;;
40501;SDS011;29631;49.168;9.848;2023-08-06T12:41:09;0.55;;;0.55;;
40501;SDS011;29631;49.168;9.848;2023-08-06T12:43:35;0.40;;;0.40;;
40501;SDS011;29631;49.168;9.848;2023-08-06T12:46:00;0.60;;;0.60;;
40501;SDS011;29631;49.168;9.848;2023-08-06T12:48:26;0.73;;;0.73;;
40501;SDS011;29631;49.168;9.848;2023-08-06T12:50:52;0.60;;;0.60;;
40501;SDS011;29631;49.168;9.848;2023-08-06T12:53:17;0.60;;;0.60;;
40501;SDS011;29631;49.168;9.848;2023-08-06T12:55:46;0.70;;;0.70;;
40501;SDS011;29631;49.168;9.848;2023-08-06T12:58:11;0.60;;;0.60;;
40501;SDS011;29631;49.168;9.848;2023-08-06T13:00:37;0.65;;;0.65;;
40501;SDS011;29631;49.168;9.848;2023-08-06T13:03:03;0.70;;;0.68;;
40501;SDS011;29631;49.168;9.848;2023-08-06T13:05:28;0.90;;;0.90;;
40501;SDS011;29631;49.168;9.848;2023-08-06T13:07:54;0.80;;;0.80;;
40501;SDS011;29631;49.168;9.848;2023-08-06T13:10:20;0.90;;;0.90;;
40501;SDS011;29631;49.168;9.848;2023-08-06T13:12:46;0.77;;;0.73;;
40501;SDS011;29631;49.168;9.848;2023-08-06T13:15:12;1.10;;;1.00;;
40501;SDS011;29631;49.168;9.848;2023-08-06T13:17:39;1.02;;;1.02;;
40501;SDS011;29631;49.168;9.848;2023-08-06T13:20:05;1.55;;;1.00;;
40501;SDS011;29631;49.168;9.848;2023-08-06T13:22:31;1.13;;;1.13;;
40501;SDS011;29631;49.168;9.848;2023-08-06T13:24:57;5.80;;;5.30;;
40501;SDS011;29631;49.168;9.848;2023-08-06T13:27:23;4.10;;;3.40;;
40501;SDS011;29631;49.168;9.848;2023-08-06T13:29:48;5.65;;;4.32;;
40501;SDS011;29631;49.168;9.848;2023-08-06T13:32:14;2.40;;;2.30;;
40501;SDS011;29631;49.168;9.848;2023-08-06T13:34:40;2.03;;;1.92;;
40501;SDS011;29631;49.168;9.848;2023-08-06T13:37:05;1.88;;;1.77;;
40501;SDS011;29631;49.168;9.848;2023-08-06T13:39:31;4.80;;;2.90;;
40501;SDS011;29631;49.168;9.848;2023-08-06T13:41:57;9.10;;;6.97;;
40501;SDS011;29631;49.168;9.848;2023-08-06T13:44:22;4.07;;;3.65;;
40501;SDS011;29631;49.168;9.848;2023-08-06T13:46:48;16.13;;;10.68;;
40501;SDS011;29631;49.168;9.848;2023-08-06T13:49:14;6.32;;;5.72;;
40501;SDS011;29631;49.168;9.848;2023-08-06T13:51:40;4.55;;;3.10;;
40501;SDS011;29631;49.168;9.848;2023-08-06T13:54:05;4.22;;;3.28;;
40501;SDS011;29631;49.168;9.848;2023-08-06T13:56:32;4.60;;;4.20;;
40501;SDS011;29631;49.168;9.848;2023-08-06T13:58:58;3.63;;;3.33;;
40501;SDS011;29631;49.168;9.848;2023-08-06T14:01:24;3.97;;;3.67;;
40501;SDS011;29631;49.168;9.848;2023-08-06T14:03:49;5.43;;;4.93;;
40501;SDS011;29631;49.168;9.848;2023-08-06T14:06:15;3.20;;;3.00;;
40501;SDS011;29631;49.168;9.848;2023-08-06T14:08:41;2.03;;;1.92;;
40501;SDS011;29631;49.168;9.848;2023-08-06T14:11:06;1.40;;;1.40;;
40501;SDS011;29631;49.168;9.848;2023-08-06T14:13:32;1.27;;;1.27;;
40501;SDS011;29631;49.168;9.848;2023-08-06T14:15:58;1.23;;;1.20;;
40501;SDS011;29631;49.168;9.848;2023-08-06T14:18:23;1.20;;;1.20;;
40501;SDS011;29631;49.168;9.848;2023-08-06T14:20:50;1.13;;;1.02;;
40501;SDS011;29631;49.168;9.848;2023-08-06T14:23:15;1.30;;;1.20;;
40501;SDS011;29631;49.168;9.848;2023-08-06T14:25:41;0.93;;;0.93;;
40501;SDS011;29631;49.168;9.848;2023-08-06T14:28:07;0.90;;;0.90;;
40501;SDS011;29631;49.168;9.848;2023-08-06T14:30:33;1.30;;;1.20;;
40501;SDS011;29631;49.168;9.848;2023-08-06T14:32:59;0.90;;;0.90;;
40501;SDS011;29631;49.168;9.848;2023-08-06T14:35:26;0.68;;;0.68;;
40501;SDS011;29631;49.168;9.848;2023-08-06T14:37:52;0.77;;;0.77;;
40501;SDS011;29631;49.168;9.848;2023-08-06T14:40:18;0.73;;;0.70;;
40501;SDS011;29631;49.168;9.848;2023-08-06T14:42:43;0.60;;;0.60;;
40501;SDS011;29631;49.168;9.848;2023-08-06T14:45:09;0.50;;;0.50;;
40501;SDS011;29631;49.168;9.848;2023-08-06T14:47:35;0.50;;;0.50;;
40501;SDS011;29631;49.168;9.848;2023-08-06T14:50:01;0.70;;;0.70;;
40501;SDS011;29631;49.168;9.848;2023-08-06T14:52:26;0.57;;;0.57;;
40501;SDS011;29631;49.168;9.848;2023-08-06T14:54:52;2.28;;;2.17;;